sensor_id;sensor_type;location;lat;lon;timestamp;pressure;altitude;pressure_sealevel;temperature;humidity
73600;BME280;61877;48.246;9.220;2023-10-09T00:00:29;94932.47;;;7.51;98.64
73600;BME280;61877;48.246;9.220;2023-10-09T00:02:55;94934.47;;;7.46;98.33
73600;BME280;61877;48.246;9.220;2023-10-09T00:05:20;94934.47;;;7.46;97.75
73600;BME280;61877;48.246;9.220;2023-10-09T00:07:46;94934.75;;;7.44;98.03
73600;BME280;61877;48.246;9.220;2023-10-09T00:10:12;94928.13;;;7.42;97.66
73600;BME280;61877;48.246;9.220;2023-10-09T00:12:39;94931.38;;;7.39;98.12
73600;BME280;61877;48.246;9.220;2023-10-09T00:15:05;94918.03;;;7.39;97.98
73600;BME280;61877;48.246;9.220;2023-10-09T00:17:31;94927.41;;;7.36;97.76
73600;BME280;61877;48.246;9.220;2023-10-09T00:19:57;94922.88;;;7.37;98.11
73600;BME280;61877;48.246;9.220;2023-10-09T00:22:23;94919.50;;;7.31;97.48
73600;BME280;61877;48.246;9.220;2023-10-09T00:24:48;94919.03;;;7.29;97.60
73600;BME280;61877;48.246;9.220;2023-10-09T00:27:14;94921.59;;;7.21;97.76
73600;BME280;61877;48.246;9.220;2023-10-09T00:29:42;94919.00;;;7.16;98.09
73600;BME280;61877;48.246;9.220;2023-10-09T00:32:08;94912.06;;;7.15;98.25
73600;BME280;61877;48.246;9.220;2023-10-09T00:34:33;94908.63;;;7.14;98.07
73600;BME280;61877;48.246;9.220;2023-10-09T00:36:59;94906.56;;;7.11;98.74
73600;BME280;61877;48.246;9.220;2023-10-09T00:39:25;94896.06;;;7.15;98.49
73600;BME280;61877;48.246;9.220;2023-10-09T00:41:51;94902.22;;;7.15;98.92
73600;BME280;61877;48.246;9.220;2023-10-09T00:44:17;94896.06;;;7.15;98.77
73600;BME280;61877;48.246;9.220;2023-10-09T00:46:46;94896.38;;;7.13;99.27
73600;BME280;61877;48.246;9.220;2023-10-09T00:49:12;94895.91;;;7.11;99.44
73600;BME280;61877;48.246;9.220;2023-10-09T00:51:44;94892.72;;;7.09;99.34
73600;BME280;61877;48.246;9.220;2023-10-09T00:54:13;94894.28;;;7.10;98.84
73600;BME280;61877;48.246;9.220;2023-10-09T00:56:40;94887.19;;;7.06;98.95
73600;BME280;61877;48.246;9.220;2023-10-09T00:59:08;94891.53;;;7.02;98.80
73600;BME280;61877;48.246;9.220;2023-10-09T01:01:34;94885.97;;;6.98;99.06
73600;BME280;61877;48.246;9.220;2023-10-09T01:04:12;94886.28;;;6.97;99.33
73600;BME280;61877;48.246;9.220;2023-10-09T01:06:39;94874.63;;;6.93;98.97
73600;BME280;61877;48.246;9.220;2023-10-09T01:09:06;94871.75;;;6.89;99.10
73600;BME280;61877;48.246;9.220;2023-10-09T01:11:32;94874.13;;;6.91;98.76
73600;BME280;61877;48.246;9.220;2023-10-09T01:13:58;94863.75;;;6.89;98.24
73600;BME280;61877;48.246;9.220;2023-10-09T01:16:24;94871.25;;;6.87;98.07
73600;BME280;61877;48.246;9.220;2023-10-09T01:18:50;94870.97;;;6.89;98.31
73600;BME280;61877;48.246;9.220;2023-10-09T01:21:23;94856.66;;;6.85;98.62
73600;BME280;61877;48.246;9.220;2023-10-09T01:23:53;94860.59;;;6.87;99.33
73600;BME280;61877;48.246;9.220;2023-10-09T01:26:20;94856.34;;;6.86;99.06
73600;BME280;61877;48.246;9.220;2023-10-09T01:28:46;94856.44;;;6.81;99.03
73600;BME280;61877;48.246;9.220;2023-10-09T01:31:11;94858.09;;;6.77;99.25
73600;BME280;61877;48.246;9.220;2023-10-09T01:33:37;94856.84;;;6.75;99.28
73600;BME280;61877;48.246;9.220;2023-10-09T01:36:06;94853.16;;;6.71;99.43
73600;BME280;61877;48.246;9.220;2023-10-09T01:38:31;94860.66;;;6.69;98.93
73600;BME280;61877;48.246;9.220;2023-10-09T01:40:59;94859.16;;;6.63;99.26
73600;BME280;61877;48.246;9.220;2023-10-09T01:43:25;94854.13;;;6.61;99.14
73600;BME280;61877;48.246;9.220;2023-10-09T01:45:51;94852.84;;;6.58;99.43
73600;BME280;61877;48.246;9.220;2023-10-09T01:48:16;94845.63;;;6.59;99.79
73600;BME280;61877;48.246;9.220;2023-10-09T01:50:42;94840.09;;;6.55;100.00
73600;BME280;61877;48.246;9.220;2023-10-09T01:53:08;94845.44;;;6.55;99.72
73600;BME280;61877;48.246;9.220;2023-10-09T01:55:37;94843.06;;;6.54;99.91
73600;BME280;61877;48.246;9.220;2023-10-09T01:58:07;94844.16;;;6.53;100.00
73600;BME280;61877;48.246;9.220;2023-10-09T02:00:33;94845.72;;;6.54;100.00
73600;BME280;61877;48.246;9.220;2023-10-09T02:02:59;94844.44;;;6.51;100.00
73600;BME280;61877;48.246;9.220;2023-10-09T02:05:25;94840.19;;;6.50;100.00
73600;BME280;61877;48.246;9.220;2023-10-09T02:07:51;94843.34;;;6.52;99.96
73600;BME280;61877;48.246;9.220;2023-10-09T02:10:17;94841.50;;;6.53;99.87
73600;BME280;61877;48.246;9.220;2023-10-09T02:12:44;94835.94;;;6.49;100.00
73600;BME280;61877;48.246;9.220;2023-10-09T02:15:12;94831.22;;;6.46;99.47
73600;BME280;61877;48.246;9.220;2023-10-09T02:17:38;94834.94;;;6.45;99.81
73600;BME280;61877;48.246;9.220;2023-10-09T02:20:04;94831.22;;;6.46;99.61
73600;BME280;61877;48.246;9.220;2023-10-09T02:22:30;94825.88;;;6.46;100.00
73600;BME280;61877;48.246;9.220;2023-10-09T02:24:56;94825.88;;;6.46;100.00
73600;BME280;61877;48.246;9.220;2023-10-09T02:27:22;94833.00;;;6.51;100.00
73600;BME280;61877;48.246;9.220;2023-10-09T02:29:47;94829.53;;;6.50;100.00
73600;BME280;61877;48.246;9.220;2023-10-09T02:32:17;94825.78;;;6.51;100.00
73600;BME280;61877;48.246;9.220;2023-10-09T02:34:43;94817.97;;;6.55;100.00
73600;BME280;61877;48.246;9.220;2023-10-09T02:37:09;94820.84;;;6.58;100.00
73600;BME280;61877;48.246;9.220;2023-10-09T02:39:34;94811.56;;;6.56;100.00
73600;BME280;61877;48.246;9.220;2023-10-09T02:42:00;94812.06;;;6.58;100.00
73600;BME280;61877;48.246;9.220;2023-10-09T02:44:26;94809.59;;;6.62;100.00
73600;BME280;61877;48.246;9.220;2023-10-09T02:46:52;94810.88;;;6.64;100.00
73600;BME280;61877;48.246;9.220;2023-10-09T02:49:20;94805.56;;;6.64;100.00
73600;BME280;61877;48.246;9.220;2023-10-09T02:51:46;94802.59;;;6.66;100.00
73600;BME280;61877;48.246;9.220;2023-10-09T02:54:12;94796.97;;;6.67;100.00
73600;BME280;61877;48.246;9.220;2023-10-09T02:56:38;94800.63;;;6.71;100.00
73600;BME280;61877;48.246;9.220;2023-10-09T02:59:04;94798.25;;;6.70;100.00
73600;BME280;61877;48.246;9.220;2023-10-09T03:01:30;94802.00;;;6.69;100.00
73600;BME280;61877;48.246;9.220;2023-10-09T03:03:55;94797.66;;;6.73;100.00
73600;BME280;61877;48.246;9.220;2023-10-09T03:06:33;94794.09;;;6.77;100.00
73600;BME280;61877;48.246;9.220;2023-10-09T03:09:02;94795.72;;;6.78;100.00
73600;BME280;61877;48.246;9.220;2023-10-09T03:11:28;94785.03;;;6.78;100.00
73600;BME280;61877;48.246;9.220;2023-10-09T03:13:53;94786.81;;;6.83;100.00
73600;BME280;61877;48.246;9.220;2023-10-09T03:16:19;94777.72;;;6.84;100.00
73600;BME280;61877;48.246;9.220;2023-10-09T03:18:45;94790.44;;;6.87;100.00
73600;BME280;61877;48.246;9.220;2023-10-09T03:21:11;94788.78;;;6.91;100.00
73600;BME280;61877;48.246;9.220;2023-10-09T03:23:38;94791.94;;;6.93;100.00
73600;BME280;61877;48.246;9.220;2023-10-09T03:26:04;94787.69;;;6.92;100.00
73600;BME280;61877;48.246;9.220;2023-10-09T03:28:30;94787.13;;;6.95;100.00
73600;BME280;61877;48.246;9.220;2023-10-09T03:30:55;94788.69;;;6.96;100.00
73600;BME280;61877;48.246;9.220;2023-10-09T03:33:21;94786.31;;;6.94;100.00
73600;BME280;61877;48.246;9.220;2023-10-09T03:35:47;94788.59;;;7.01;100.00
73600;BME280;61877;48.246;9.220;2023-10-09T03:38:13;94789.56;;;7.05;100.00
73600;BME280;61877;48.246;9.220;2023-10-09T03:40:49;94784.72;;;7.07;100.00
73600;BME280;61877;48.246;9.220;2023-10-09T03:43:15;94777.50;;;7.07;100.00
73600;BME280;61877;48.246;9.220;2023-10-09T03:45:40;94784.59;;;7.12;100.00
73600;BME280;61877;48.246;9.220;2023-10-09T03:48:06;94782.44;;;7.14;100.00
73600;BME280;61877;48.246;9.220;2023-10-09T03:50:32;94780.47;;;7.19;100.00
73600;BME280;61877;48.246;9.220;2023-10-09T03:52:59;94787.56;;;7.24;100.00
73600;BME280;61877;48.246;9.220;2023-10-09T03:55:24;94781.13;;;7.25;99.63
73600;BME280;61877;48.246;9.220;2023-10-09T03:57:54;94783.03;;;7.24;99.67
73600;BME280;61877;48.246;9.220;2023-10-09T04:00:20;94778.66;;;7.28;100.00
73600;BME280;61877;48.246;9.220;2023-10-09T04:02:46;94777.59;;;7.29;100.00
73600;BME280;61877;48.246;9.220;2023-10-09T04:05:12;94774.13;;;7.29;99.90
73600;BME280;61877;48.246;9.220;2023-10-09T04:07:37;94776.78;;;7.29;100.00
73600;BME280;61877;48.246;9.220;2023-10-09T04:10:04;94774.81;;;7.34;99.92
73600;BME280;61877;48.246;9.220;2023-10-09T04:12:30;94762.84;;;7.32;99.81
73600;BME280;61877;48.246;9.220;2023-10-09T04:14:59;94767.56;;;7.35;99.94
73600;BME280;61877;48.246;9.220;2023-10-09T04:17:25;94767.69;;;7.30;99.92
73600;BME280;61877;48.246;9.220;2023-10-09T04:19:53;94759.47;;;7.26;100.00
73600;BME280;61877;48.246;9.220;2023-10-09T04:22:19;94762.94;;;7.27;99.91
73600;BME280;61877;48.246;9.220;2023-10-09T04:24:45;94762.94;;;7.27;99.69
73600;BME280;61877;48.246;9.220;2023-10-09T04:27:11;94764.16;;;7.21;100.00
73600;BME280;61877;48.246;9.220;2023-10-09T04:29:36;94766.94;;;7.16;100.00
73600;BME280;61877;48.246;9.220;2023-10-09T04:32:20;94767.84;;;7.11;100.00
73600;BME280;61877;48.246;9.220;2023-10-09T04:34:46;94763.88;;;7.09;100.00
73600;BME280;61877;48.246;9.220;2023-10-09T04:37:12;94761.50;;;7.07;100.00
73600;BME280;61877;48.246;9.220;2023-10-09T04:39:37;94763.88;;;7.09;100.00
73600;BME280;61877;48.246;9.220;2023-10-09T04:42:03;94756.16;;;7.07;100.00
73600;BME280;61877;48.246;9.220;2023-10-09T04:44:29;94766.03;;;7.07;100.00
73600;BME280;61877;48.246;9.220;2023-10-09T04:46:55;94760.69;;;7.07;100.00
73600;BME280;61877;48.246;9.220;2023-10-09T04:49:23;94760.69;;;7.07;100.00
73600;BME280;61877;48.246;9.220;2023-10-09T04:51:49;94753.50;;;7.07;100.00
73600;BME280;61877;48.246;9.220;2023-10-09T04:54:15;94756.97;;;7.08;100.00
73600;BME280;61877;48.246;9.220;2023-10-09T04:56:41;94763.38;;;7.07;100.00
73600;BME280;61877;48.246;9.220;2023-10-09T04:59:07;94752.41;;;7.08;100.00
73600;BME280;61877;48.246;9.220;2023-10-09T05:01:33;94760.22;;;7.05;100.00
73600;BME280;61877;48.246;9.220;2023-10-09T05:03:59;94766.13;;;7.02;100.00
73600;BME280;61877;48.246;9.220;2023-10-09T05:06:27;94763.47;;;7.02;100.00
73600;BME280;61877;48.246;9.220;2023-10-09T05:08:53;94766.13;;;7.02;100.00
73600;BME280;61877;48.246;9.220;2023-10-09T05:11:22;94763.06;;;7.08;100.00
73600;BME280;61877;48.246;9.220;2023-10-09T05:13:48;94765.44;;;7.10;100.00
73600;BME280;61877;48.246;9.220;2023-10-09T05:16:15;94763.25;;;7.12;100.00
73600;BME280;61877;48.246;9.220;2023-10-09T05:18:42;94756.38;;;7.11;100.00
73600;BME280;61877;48.246;9.220;2023-10-09T05:21:08;94763.06;;;7.08;100.00
73600;BME280;61877;48.246;9.220;2023-10-09T05:23:36;94759.84;;;7.11;100.00
73600;BME280;61877;48.246;9.220;2023-10-09T05:26:02;94765.84;;;7.17;100.00
73600;BME280;61877;48.246;9.220;2023-10-09T05:28:33;94760.50;;;7.17;100.00
73600;BME280;61877;48.246;9.220;2023-10-09T05:30:59;94757.31;;;7.15;100.00
73600;BME280;61877;48.246;9.220;2023-10-09T05:33:25;94757.16;;;7.11;100.00
73600;BME280;61877;48.246;9.220;2023-10-09T05:35:54;94769.09;;;7.14;100.00
73600;BME280;61877;48.246;9.220;2023-10-09T05:38:21;94768.31;;;7.13;100.00
73600;BME280;61877;48.246;9.220;2023-10-09T05:40:54;94769.09;;;7.14;100.00
73600;BME280;61877;48.246;9.220;2023-10-09T05:43:23;94767.22;;;7.14;100.00
73600;BME280;61877;48.246;9.220;2023-10-09T05:45:49;94769.91;;;7.14;100.00
73600;BME280;61877;48.246;9.220;2023-10-09T05:48:14;94775.69;;;7.16;100.00
73600;BME280;61877;48.246;9.220;2023-10-09T05:50:40;94777.50;;;7.21;100.00
73600;BME280;61877;48.246;9.220;2023-10-09T05:53:06;94780.06;;;7.26;100.00
73600;BME280;61877;48.246;9.220;2023-10-09T05:55:32;94785.41;;;7.26;100.00
73600;BME280;61877;48.246;9.220;2023-10-09T05:58:15;94792.69;;;7.34;100.00
73600;BME280;61877;48.246;9.220;2023-10-09T06:00:41;94791.78;;;7.38;100.00
73600;BME280;61877;48.246;9.220;2023-10-09T06:03:07;94794.03;;;7.45;100.00
73600;BME280;61877;48.246;9.220;2023-10-09T06:05:33;94792.88;;;7.51;100.00
73600;BME280;61877;48.246;9.220;2023-10-09T06:07:59;94792.63;;;7.61;100.00
73600;BME280;61877;48.246;9.220;2023-10-09T06:10:24;94800.69;;;7.69;100.00
73600;BME280;61877;48.246;9.220;2023-10-09T06:12:50;94794.78;;;7.72;99.73
73600;BME280;61877;48.246;9.220;2023-10-09T06:15:20;94805.25;;;7.82;99.67
73600;BME280;61877;48.246;9.220;2023-10-09T06:17:46;94795.19;;;7.88;99.49
73600;BME280;61877;48.246;9.220;2023-10-09T06:20:12;94801.41;;;7.97;98.72
73600;BME280;61877;48.246;9.220;2023-10-09T06:22:38;94801.28;;;8.02;97.49
73600;BME280;61877;48.246;9.220;2023-10-09T06:25:04;94797.59;;;8.12;97.46
73600;BME280;61877;48.246;9.220;2023-10-09T06:27:30;94799.00;;;8.31;97.42
73600;BME280;61877;48.246;9.220;2023-10-09T06:29:57;94799.22;;;8.43;95.99
73600;BME280;61877;48.246;9.220;2023-10-09T06:32:41;94790.47;;;8.51;96.28
73600;BME280;61877;48.246;9.220;2023-10-09T06:35:08;94800.59;;;8.63;95.50
73600;BME280;61877;48.246;9.220;2023-10-09T06:37:35;94795.28;;;8.71;94.87
73600;BME280;61877;48.246;9.220;2023-10-09T06:40:03;94796.13;;;8.80;94.65
73600;BME280;61877;48.246;9.220;2023-10-09T06:42:30;94798.09;;;8.97;94.24
73600;BME280;61877;48.246;9.220;2023-10-09T06:44:56;94793.84;;;9.04;93.43
73600;BME280;61877;48.246;9.220;2023-10-09T06:47:21;94795.13;;;9.15;92.72
73600;BME280;61877;48.246;9.220;2023-10-09T06:49:51;94800.97;;;9.18;92.22
73600;BME280;61877;48.246;9.220;2023-10-09T06:52:16;94801.00;;;9.26;91.89
73600;BME280;61877;48.246;9.220;2023-10-09T06:54:42;94808.25;;;9.34;92.29
73600;BME280;61877;48.246;9.220;2023-10-09T06:57:08;94799.63;;;9.46;90.25
73600;BME280;61877;48.246;9.220;2023-10-09T06:59:34;94803.56;;;9.48;90.26
73600;BME280;61877;48.246;9.220;2023-10-09T07:02:00;94811.94;;;9.64;91.18
73600;BME280;61877;48.246;9.220;2023-10-09T07:04:26;94809.09;;;9.69;89.44
73600;BME280;61877;48.246;9.220;2023-10-09T07:09:52;94810.22;;;10.02;87.67
73600;BME280;61877;48.246;9.220;2023-10-09T07:12:18;94813.41;;;10.21;87.71
73600;BME280;61877;48.246;9.220;2023-10-09T07:14:43;94811.19;;;10.31;85.75
73600;BME280;61877;48.246;9.220;2023-10-09T07:17:10;94815.88;;;10.52;85.29
73600;BME280;61877;48.246;9.220;2023-10-09T07:19:35;94815.72;;;10.65;83.11
73600;BME280;61877;48.246;9.220;2023-10-09T07:22:02;94817.72;;;10.85;84.98
73600;BME280;61877;48.246;9.220;2023-10-09T07:24:28;94815.63;;;10.99;84.25
73600;BME280;61877;48.246;9.220;2023-10-09T07:29:53;94811.84;;;11.29;83.81
73600;BME280;61877;48.246;9.220;2023-10-09T07:32:18;94813.06;;;11.40;84.93
73600;BME280;61877;48.246;9.220;2023-10-09T07:34:44;94814.16;;;11.39;83.73
73600;BME280;61877;48.246;9.220;2023-10-09T07:37:10;94819.34;;;11.44;83.03
73600;BME280;61877;48.246;9.220;2023-10-09T07:39:36;94818.00;;;11.59;81.93
73600;BME280;61877;48.246;9.220;2023-10-09T07:42:04;94819.44;;;11.65;80.88
73600;BME280;61877;48.246;9.220;2023-10-09T07:44:30;94810.13;;;11.83;80.69
73600;BME280;61877;48.246;9.220;2023-10-09T07:47:01;94809.75;;;11.93;79.68
73600;BME280;61877;48.246;9.220;2023-10-09T07:49:30;94820.91;;;12.04;79.71
73600;BME280;61877;48.246;9.220;2023-10-09T07:51:56;94811.53;;;12.10;79.59
73600;BME280;61877;48.246;9.220;2023-10-09T07:54:22;94812.41;;;12.14;79.90
73600;BME280;61877;48.246;9.220;2023-10-09T07:56:49;94812.63;;;12.29;80.59
73600;BME280;61877;48.246;9.220;2023-10-09T07:59:15;94798.56;;;12.44;80.30
73600;BME280;61877;48.246;9.220;2023-10-09T08:01:43;94805.22;;;12.59;80.45
73600;BME280;61877;48.246;9.220;2023-10-09T08:04:11;94803.69;;;12.70;80.98
73600;BME280;61877;48.246;9.220;2023-10-09T08:06:37;94804.84;;;12.81;78.79
73600;BME280;61877;48.246;9.220;2023-10-09T08:09:03;94808.09;;;12.98;77.53
73600;BME280;61877;48.246;9.220;2023-10-09T08:11:30;94811.22;;;13.21;77.70
73600;BME280;61877;48.246;9.220;2023-10-09T08:13:57;94798.88;;;13.44;77.54
73600;BME280;61877;48.246;9.220;2023-10-09T08:16:23;94802.34;;;13.57;76.33
73600;BME280;61877;48.246;9.220;2023-10-09T08:18:49;94806.59;;;13.70;76.72
73600;BME280;61877;48.246;9.220;2023-10-09T08:21:18;94811.63;;;13.95;76.69
73600;BME280;61877;48.246;9.220;2023-10-09T08:23:44;94802.72;;;14.07;76.02
73600;BME280;61877;48.246;9.220;2023-10-09T08:26:10;94808.44;;;14.17;76.33
73600;BME280;61877;48.246;9.220;2023-10-09T08:28:35;94811.41;;;14.40;75.91
73600;BME280;61877;48.246;9.220;2023-10-09T08:31:01;94801.00;;;14.54;75.14
73600;BME280;61877;48.246;9.220;2023-10-09T08:33:27;94799.03;;;14.67;74.14
73600;BME280;61877;48.246;9.220;2023-10-09T08:35:54;94796.69;;;14.81;74.22
73600;BME280;61877;48.246;9.220;2023-10-09T08:38:38;94800.22;;;14.97;74.41
73600;BME280;61877;48.246;9.220;2023-10-09T08:41:08;94797.53;;;14.97;74.73
73600;BME280;61877;48.246;9.220;2023-10-09T08:43:35;94801.72;;;15.25;74.24
73600;BME280;61877;48.246;9.220;2023-10-09T08:46:05;94799.41;;;15.55;73.06
73600;BME280;61877;48.246;9.220;2023-10-09T08:48:32;94800.06;;;15.68;71.99
73600;BME280;61877;48.246;9.220;2023-10-09T08:50:59;94801.50;;;15.96;71.20
73600;BME280;61877;48.246;9.220;2023-10-09T08:53:26;94803.50;;;15.99;71.46
73600;BME280;61877;48.246;9.220;2023-10-09T08:55:56;94806.38;;;16.25;71.29
73600;BME280;61877;48.246;9.220;2023-10-09T08:58:24;94800.59;;;16.27;70.96
73600;BME280;61877;48.246;9.220;2023-10-09T09:00:52;94808.69;;;16.61;70.39
73600;BME280;61877;48.246;9.220;2023-10-09T09:03:19;94803.34;;;16.84;70.91
73600;BME280;61877;48.246;9.220;2023-10-09T09:05:47;94812.22;;;17.04;69.06
73600;BME280;61877;48.246;9.220;2023-10-09T09:08:23;94806.78;;;17.26;68.87
73600;BME280;61877;48.246;9.220;2023-10-09T09:10:59;94807.34;;;17.35;68.44
73600;BME280;61877;48.246;9.220;2023-10-09T09:13:25;94811.66;;;17.59;66.97
73600;BME280;61877;48.246;9.220;2023-10-09T09:15:51;94810.13;;;17.84;66.14
73600;BME280;61877;48.246;9.220;2023-10-09T09:18:17;94812.78;;;18.07;66.55
73600;BME280;61877;48.246;9.220;2023-10-09T09:20:43;94815.31;;;18.48;55.25
73600;BME280;61877;48.246;9.220;2023-10-09T09:23:10;94810.81;;;19.29;50.18
73600;BME280;61877;48.246;9.220;2023-10-09T09:25:43;94808.63;;;19.92;46.19
73600;BME280;61877;48.246;9.220;2023-10-09T09:28:13;94804.31;;;20.45;46.09
73600;BME280;61877;48.246;9.220;2023-10-09T09:30:39;94798.97;;;20.70;44.95
73600;BME280;61877;48.246;9.220;2023-10-09T09:33:17;94813.53;;;21.09;42.77
73600;BME280;61877;48.246;9.220;2023-10-09T09:35:56;94808.91;;;21.34;41.72
73600;BME280;61877;48.246;9.220;2023-10-09T09:38:25;94807.75;;;21.42;42.72
73600;BME280;61877;48.246;9.220;2023-10-09T09:40:52;94801.16;;;21.71;39.44
73600;BME280;61877;48.246;9.220;2023-10-09T09:43:31;94805.06;;;22.09;39.54
73600;BME280;61877;48.246;9.220;2023-10-09T09:45:58;94805.81;;;22.31;38.68
73600;BME280;61877;48.246;9.220;2023-10-09T09:48:26;94793.97;;;22.76;38.10
73600;BME280;61877;48.246;9.220;2023-10-09T09:50:52;94782.72;;;22.46;36.93
73600;BME280;61877;48.246;9.220;2023-10-09T09:53:18;94798.25;;;22.77;37.49
73600;BME280;61877;48.246;9.220;2023-10-09T09:55:46;94801.00;;;22.80;37.37
73600;BME280;61877;48.246;9.220;2023-10-09T09:58:21;94795.59;;;22.63;36.81
73600;BME280;61877;48.246;9.220;2023-10-09T10:00:47;94793.50;;;22.95;36.88
73600;BME280;61877;48.246;9.220;2023-10-09T10:03:17;94798.94;;;22.98;35.98
73600;BME280;61877;48.246;9.220;2023-10-09T10:05:45;94804.69;;;23.25;36.60
73600;BME280;61877;48.246;9.220;2023-10-09T10:08:11;94797.59;;;23.38;36.83
73600;BME280;61877;48.246;9.220;2023-10-09T10:10:40;94808.97;;;23.33;35.83
73600;BME280;61877;48.246;9.220;2023-10-09T10:13:06;94805.69;;;23.56;35.24
73600;BME280;61877;48.246;9.220;2023-10-09T10:16:04;94812.03;;;23.46;35.23
73600;BME280;61877;48.246;9.220;2023-10-09T10:18:31;94822.63;;;23.37;35.52
73600;BME280;61877;48.246;9.220;2023-10-09T10:21:12;94814.59;;;23.70;34.76
73600;BME280;61877;48.246;9.220;2023-10-09T10:23:38;94815.25;;;23.85;34.59
73600;BME280;61877;48.246;9.220;2023-10-09T10:26:16;94807.81;;;23.85;33.86
73600;BME280;61877;48.246;9.220;2023-10-09T10:28:42;94813.56;;;24.05;33.45
73600;BME280;61877;48.246;9.220;2023-10-09T10:31:09;94811.22;;;24.44;33.10
73600;BME280;61877;48.246;9.220;2023-10-09T10:34:05;94801.66;;;24.59;33.55
73600;BME280;61877;48.246;9.220;2023-10-09T10:36:31;94802.75;;;24.69;33.16
73600;BME280;61877;48.246;9.220;2023-10-09T10:38:59;94796.34;;;24.42;32.25
73600;BME280;61877;48.246;9.220;2023-10-09T10:41:25;94803.34;;;24.87;32.46
73600;BME280;61877;48.246;9.220;2023-10-09T10:43:50;94806.38;;;24.59;31.85
73600;BME280;61877;48.246;9.220;2023-10-09T10:46:18;94804.97;;;24.44;33.38
73600;BME280;61877;48.246;9.220;2023-10-09T10:48:44;94813.44;;;24.19;32.24
73600;BME280;61877;48.246;9.220;2023-10-09T10:51:10;94806.09;;;24.09;31.45
73600;BME280;61877;48.246;9.220;2023-10-09T10:53:35;94806.38;;;24.18;32.13
73600;BME280;61877;48.246;9.220;2023-10-09T10:56:01;94811.28;;;23.93;32.71
73600;BME280;61877;48.246;9.220;2023-10-09T10:58:27;94811.25;;;23.96;32.34
73600;BME280;61877;48.246;9.220;2023-10-09T11:00:57;94809.38;;;23.86;33.51
73600;BME280;61877;48.246;9.220;2023-10-09T11:03:24;94810.13;;;23.90;33.14
73600;BME280;61877;48.246;9.220;2023-10-09T11:05:50;94805.38;;;23.98;34.07
73600;BME280;61877;48.246;9.220;2023-10-09T11:08:16;94814.31;;;24.09;34.17
73600;BME280;61877;48.246;9.220;2023-10-09T11:10:41;94806.56;;;24.00;32.51
73600;BME280;61877;48.246;9.220;2023-10-09T11:13:07;94804.06;;;24.13;32.44
73600;BME280;61877;48.246;9.220;2023-10-09T11:15:33;94801.06;;;24.00;33.26
73600;BME280;61877;48.246;9.220;2023-10-09T11:18:00;94797.91;;;24.02;33.97
73600;BME280;61877;48.246;9.220;2023-10-09T11:20:26;94802.63;;;24.01;32.60
73600;BME280;61877;48.246;9.220;2023-10-09T11:22:52;94801.22;;;24.27;32.80
73600;BME280;61877;48.246;9.220;2023-10-09T11:25:18;94795.44;;;24.55;32.39
73600;BME280;61877;48.246;9.220;2023-10-09T11:27:44;94795.47;;;24.52;32.46
73600;BME280;61877;48.246;9.220;2023-10-09T11:30:10;94792.34;;;24.12;32.47
73600;BME280;61877;48.246;9.220;2023-10-09T11:32:43;94800.81;;;24.29;33.45
73600;BME280;61877;48.246;9.220;2023-10-09T11:35:20;94793.69;;;24.35;32.80
73600;BME280;61877;48.246;9.220;2023-10-09T11:37:55;94793.94;;;24.10;32.86
73600;BME280;61877;48.246;9.220;2023-10-09T11:40:41;94789.09;;;24.24;33.16
73600;BME280;61877;48.246;9.220;2023-10-09T11:43:25;94784.50;;;24.11;33.38
73600;BME280;61877;48.246;9.220;2023-10-09T11:46:08;94792.78;;;24.07;33.47
73600;BME280;61877;48.246;9.220;2023-10-09T11:48:33;94789.75;;;23.91;33.23
73600;BME280;61877;48.246;9.220;2023-10-09T11:50:59;94783.25;;;24.23;33.83
73600;BME280;61877;48.246;9.220;2023-10-09T11:53:39;94790.19;;;24.34;34.00
73600;BME280;61877;48.246;9.220;2023-10-09T11:56:05;94783.88;;;23.89;33.92
73600;BME280;61877;48.246;9.220;2023-10-09T11:58:30;94777.47;;;24.10;33.10
73600;BME280;61877;48.246;9.220;2023-10-09T12:00:57;94773.47;;;24.18;34.04
73600;BME280;61877;48.246;9.220;2023-10-09T12:03:24;94767.72;;;24.43;33.96
73600;BME280;61877;48.246;9.220;2023-10-09T12:05:50;94772.31;;;24.53;33.90
73600;BME280;61877;48.246;9.220;2023-10-09T12:08:15;94778.03;;;24.32;33.96
73600;BME280;61877;48.246;9.220;2023-10-09T12:10:42;94767.25;;;24.51;33.28
73600;BME280;61877;48.246;9.220;2023-10-09T12:13:08;94764.63;;;24.41;33.62
73600;BME280;61877;48.246;9.220;2023-10-09T12:15:55;94768.41;;;24.16;34.33
73600;BME280;61877;48.246;9.220;2023-10-09T12:18:21;94764.88;;;24.16;33.07
73600;BME280;61877;48.246;9.220;2023-10-09T12:20:47;94770.53;;;23.98;34.08
73600;BME280;61877;48.246;9.220;2023-10-09T12:23:15;94761.22;;;23.85;33.87
73600;BME280;61877;48.246;9.220;2023-10-09T12:25:42;94752.88;;;23.55;33.21
73600;BME280;61877;48.246;9.220;2023-10-09T12:28:07;94760.19;;;23.72;34.16
73600;BME280;61877;48.246;9.220;2023-10-09T12:30:34;94757.44;;;23.72;35.14
73600;BME280;61877;48.246;9.220;2023-10-09T12:32:59;94766.09;;;23.64;33.75
73600;BME280;61877;48.246;9.220;2023-10-09T12:35:25;94764.06;;;23.71;35.21
73600;BME280;61877;48.246;9.220;2023-10-09T12:37:51;94760.56;;;23.74;35.58
73600;BME280;61877;48.246;9.220;2023-10-09T12:40:17;94763.66;;;23.76;35.02
73600;BME280;61877;48.246;9.220;2023-10-09T12:42:43;94758.44;;;23.92;35.00
73600;BME280;61877;48.246;9.220;2023-10-09T12:45:09;94763.72;;;23.69;35.40
73600;BME280;61877;48.246;9.220;2023-10-09T12:47:35;94755.19;;;23.60;33.30
73600;BME280;61877;48.246;9.220;2023-10-09T12:50:00;94756.66;;;23.68;32.59
73600;BME280;61877;48.246;9.220;2023-10-09T12:52:26;94748.56;;;23.54;33.07
73600;BME280;61877;48.246;9.220;2023-10-09T12:54:51;94748.72;;;23.33;33.30
73600;BME280;61877;48.246;9.220;2023-10-09T12:57:17;94744.97;;;23.06;34.12
73600;BME280;61877;48.246;9.220;2023-10-09T12:59:43;94753.22;;;22.95;33.96
73600;BME280;61877;48.246;9.220;2023-10-09T13:02:09;94754.75;;;23.03;34.69
73600;BME280;61877;48.246;9.220;2023-10-09T13:04:34;94757.03;;;23.12;34.42
73600;BME280;61877;48.246;9.220;2023-10-09T13:06:59;94744.59;;;23.04;34.66
73600;BME280;61877;48.246;9.220;2023-10-09T13:09:25;94731.16;;;23.31;36.48